Time;durP1;ratioP1;P1;durP2;ratioP2;P2;SDS_P1;SDS_P2;PMS_P1;PMS_P2;Temp;Humidity;BMP_temperature;BMP_pressure;BME280_temperature;BME280_humidity;BME280_pressure;Samples;Min_cycle;Max_cycle;Signal;HPM_P1;HPM_P2
2022/01/23 00:00:45;;;;;;;0.10;0.10;;;5.30;99.90;;;;;;5095102;28;20048;-85
2022/01/23 00:03:19;;;;;;;0.05;0.05;;;5.30;99.90;;;;;;5126555;28;20040;-85
2022/01/23 00:05:49;;;;;;;0.10;0.10;;;5.30;99.90;;;;;;5110886;28;20051;-86
2022/01/23 00:08:20;;;;;;;0.10;0.10;;;5.30;99.90;;;;;;5092761;28;20181;-85
2022/01/23 00:10:48;;;;;;;0.10;0.10;;;5.30;99.90;;;;;;5109719;28;20036;-85
2022/01/23 00:13:27;;;;;;;0.20;0.20;;;5.30;99.90;;;;;;5092695;28;20040;-85
2022/01/23 00:18:39;;;;;;;0.10;0.10;;;5.30;99.90;;;;;;5146098;28;20040;-85
2022/01/23 00:21:06;;;;;;;0.10;0.10;;;5.30;99.90;;;;;;5109233;28;20531;-85
2022/01/23 00:30:19;;;;;;;0.10;0.10;;;5.30;99.90;;;;;;5092448;28;20075;-86
2022/01/23 00:31:51;;;;;;;0.00;0.00;;;5.30;99.90;;;;;;5145833;28;20130;-85
2022/01/23 00:34:19;;;;;;;0.10;0.10;;;5.30;99.90;;;;;;5109103;28;20040;-85
2022/01/23 00:36:46;;;;;;;0.10;0.10;;;5.30;99.90;;;;;;5092586;28;20106;-85
2022/01/23 00:39:14;;;;;;;0.10;0.10;;;5.30;99.90;;;;;;5092884;28;20052;-86
2022/01/23 00:41:40;;;;;;;0.03;0.03;;;5.30;99.90;;;;;;5109045;28;20121;-84
2022/01/23 00:44:07;;;;;;;0.10;0.10;;;5.50;99.90;;;;;;5092680;28;20036;-86
2022/01/23 00:46:37;;;;;;;0.10;0.10;;;5.70;99.90;;;;;;5109071;28;20040;-85
2022/01/23 00:51:37;;;;;;;0.10;0.10;;;5.60;99.90;;;;;;5143702;28;20097;-86
2022/01/23 00:54:07;;;;;;;0.10;0.10;;;5.30;99.90;;;;;;5112201;28;20067;-85
2022/01/23 00:56:34;;;;;;;0.10;0.10;;;5.60;99.90;;;;;;5129764;28;20043;-86
2022/01/23 00:59:01;;;;;;;0.10;0.10;;;5.30;99.90;;;;;;5113038;28;20045;-85
2022/01/23 01:01:28;;;;;;;0.10;0.10;;;5.30;99.90;;;;;;5112838;28;20035;-85
2022/01/23 01:03:55;;;;;;;0.10;0.10;;;5.30;99.90;;;;;;5113137;28;20503;-85
2022/01/23 01:06:23;;;;;;;0.10;0.10;;;5.30;99.90;;;;;;5096149;28;20401;-84
2022/01/23 01:08:51;;;;;;;0.10;0.10;;;5.30;99.90;;;;;;5095995;28;20047;-86
2022/01/23 01:11:54;;;;;;;0.10;0.10;;;5.30;99.90;;;;;;5096205;28;20492;-85
2022/01/23 01:35:28;;;;;;;0.10;0.10;;;5.30;99.90;;;;;;5129424;28;20185;-85
2022/01/23 01:37:56;;;;;;;0.10;0.10;;;5.30;99.90;;;;;;5145884;28;20479;-85
2022/01/23 01:40:25;;;;;;;0.10;0.10;;;5.30;99.90;;;;;;5112333;28;20046;-85
2022/01/23 01:42:53;;;;;;;0.10;0.10;;;5.30;99.90;;;;;;5111970;28;20043;-86
2022/01/23 01:45:31;;;;;;;0.10;0.10;;;5.30;99.90;;;;;;5111918;28;20143;-85
2022/01/23 01:48:01;;;;;;;0.10;0.10;;;5.30;99.90;;;;;;5128773;28;20036;-85
2022/01/23 01:50:32;;;;;;;0.10;0.10;;;5.30;99.90;;;;;;5145499;28;20039;-85
2022/01/23 01:53:00;;;;;;;0.08;0.08;;;5.30;99.90;;;;;;5129038;28;20047;-85
2022/01/23 01:55:32;;;;;;;0.10;0.10;;;5.30;99.90;;;;;;5128827;28;20050;-85
2022/01/23 01:58:03;;;;;;;0.10;0.10;;;6.00;99.90;;;;;;5095841;28;20036;-85
2022/01/23 02:08:31;;;;;;;0.10;0.10;;;5.30;99.90;;;;;;5128458;28;20036;-85
2022/01/23 02:11:15;;;;;;;0.10;0.10;;;5.30;99.90;;;;;;5111960;28;20081;-86
2022/01/23 02:13:52;;;;;;;0.10;0.10;;;5.30;99.90;;;;;;5113742;28;20032;-85
2022/01/23 02:52:08;;;;;;;0.10;0.10;;;5.20;99.90;;;;;;5127278;28;20126;-85
2022/01/23 02:57:37;;;;;;;0.10;0.10;;;5.20;99.90;;;;;;5147103;27;20135;-85
2022/01/23 03:00:12;;;;;;;0.10;0.10;;;5.20;99.90;;;;;;5127987;28;20043;-86
2022/01/23 03:02:54;;;;;;;0.10;0.10;;;5.20;99.90;;;;;;5110398;28;20043;-84
2022/01/23 03:05:35;;;;;;;0.10;0.10;;;5.20;99.90;;;;;;5127349;28;20404;-85
2022/01/23 03:10:59;;;;;;;0.10;0.10;;;5.00;99.90;;;;;;5126598;28;20087;-84
2022/01/23 03:16:28;;;;;;;0.10;0.10;;;5.20;99.90;;;;;;5126099;28;20040;-84
2022/01/23 03:27:24;;;;;;;0.10;0.10;;;5.30;99.90;;;;;;5145213;27;20093;-85
2022/01/23 03:32:37;;;;;;;0.10;0.10;;;5.20;99.90;;;;;;5144969;28;20040;-85
2022/01/23 03:35:05;;;;;;;0.10;0.10;;;5.20;99.90;;;;;;5095729;28;20037;-85
2022/01/23 03:37:32;;;;;;;0.10;0.10;;;5.20;99.90;;;;;;5110130;28;20039;-85
2022/01/23 03:39:59;;;;;;;0.05;0.05;;;5.20;99.90;;;;;;5109686;28;20060;-85
2022/01/23 03:42:27;;;;;;;0.10;0.10;;;5.20;99.90;;;;;;5109852;28;20051;-85
2022/01/23 03:47:41;;;;;;;0.10;0.10;;;5.20;99.90;;;;;;5146144;28;20075;-85
2022/01/23 03:50:12;;;;;;;0.10;0.10;;;5.20;99.90;;;;;;5093687;28;20036;-85
2022/01/23 03:52:39;;;;;;;0.00;0.00;;;5.10;99.90;;;;;;5093008;28;20512;-85
2022/01/23 03:55:07;;;;;;;0.10;0.10;;;5.20;99.90;;;;;;5126825;28;20040;-84
2022/01/23 03:57:34;;;;;;;0.10;0.10;;;5.20;99.90;;;;;;5143433;28;20717;-85
2022/01/23 04:00:02;;;;;;;0.10;0.10;;;5.40;99.90;;;;;;5092711;28;20036;-85
2022/01/23 04:02:28;;;;;;;0.10;0.10;;;5.20;99.90;;;;;;5143278;28;20040;-85
2022/01/23 04:04:55;;;;;;;0.10;0.10;;;5.20;99.90;;;;;;5142873;28;20040;-85
2022/01/23 04:07:26;;;;;;;0.10;0.10;;;5.20;99.90;;;;;;5093006;28;20040;-85
2022/01/23 04:09:53;;;;;;;0.10;0.10;;;5.20;99.90;;;;;;5092912;28;20032;-85
2022/01/23 04:13:13;;;;;;;0.10;0.10;;;5.10;99.90;;;;;;5109803;28;20067;-85
2022/01/23 04:15:25;;;;;;;0.10;0.10;;;5.70;99.90;;;;;;5138713;28;20077;-84
2022/01/23 04:20:35;;;;;;;0.10;0.10;;;5.10;99.90;;;;;;5143715;28;20048;-84
2022/01/23 04:34:28;;;;;;;0.10;0.10;;;5.30;99.90;;;;;;5130086;28;20040;-85
2022/01/23 04:45:25;;;;;;;0.10;0.10;;;5.20;99.90;;;;;;5149803;27;20044;-85
2022/01/23 05:04:19;;;;;;;0.10;0.10;;;5.10;99.90;;;;;;5147592;27;20072;-84
2022/01/23 05:07:00;;;;;;;0.10;0.10;;;5.10;99.90;;;;;;5098094;28;20048;-85
2022/01/23 05:09:28;;;;;;;0.10;0.10;;;5.10;99.90;;;;;;5131747;28;20063;-85
2022/01/23 05:11:58;;;;;;;0.10;0.10;;;5.10;99.90;;;;;;5095750;28;20040;-85
2022/01/23 05:14:37;;;;;;;0.10;0.10;;;5.10;99.90;;;;;;5129476;28;20046;-85
2022/01/23 05:17:07;;;;;;;0.10;0.10;;;5.10;99.90;;;;;;5146348;28;20035;-85
2022/01/23 05:19:34;;;;;;;0.10;0.10;;;5.10;99.90;;;;;;5112729;28;20047;-85
2022/01/23 05:22:20;;;;;;;0.10;0.10;;;5.10;99.90;;;;;;5095422;28;20044;-85
2022/01/23 05:24:54;;;;;;;;;;;5.10;99.90;;;;;;5115594;28;20119;-85
2022/01/23 05:27:22;;;;;;;0.10;0.10;;;5.00;99.90;;;;;;5112683;28;20372;-85
2022/01/23 05:29:50;;;;;;;0.10;0.10;;;5.00;99.90;;;;;;5112528;28;20039;-84
2022/01/23 05:32:19;;;;;;;0.10;0.10;;;5.10;99.90;;;;;;5095523;28;20048;-85
2022/01/23 05:34:47;;;;;;;0.10;0.10;;;4.90;99.90;;;;;;5096168;28;20043;-84
2022/01/23 05:37:16;;;;;;;0.10;0.10;;;4.90;99.90;;;;;;5095961;28;20036;-85
2022/01/23 05:39:43;;;;;;;0.10;0.10;;;4.90;99.90;;;;;;5111959;28;20556;-84
2022/01/23 05:42:10;;;;;;;0.10;0.10;;;5.50;99.90;;;;;;5145774;28;20043;-84
2022/01/23 05:44:38;;;;;;;0.10;0.10;;;4.90;99.90;;;;;;5112257;28;20036;-84
2022/01/23 05:47:07;;;;;;;0.10;0.10;;;4.90;99.90;;;;;;5111548;28;20036;-84
2022/01/23 05:49:35;;;;;;;0.10;0.10;;;4.90;99.90;;;;;;5095342;28;20075;-85
2022/01/23 05:52:02;;;;;;;0.10;0.10;;;5.10;99.90;;;;;;5095553;28;20040;-85
2022/01/23 05:54:29;;;;;;;0.10;0.10;;;4.90;99.90;;;;;;5145855;28;20441;-84
2022/01/23 05:56:56;;;;;;;0.10;0.10;;;4.90;99.90;;;;;;5094967;28;20135;-85
2022/01/23 05:59:23;;;;;;;0.10;0.10;;;5.00;99.90;;;;;;5111692;28;20048;-84
2022/01/23 06:01:55;;;;;;;0.10;0.10;;;4.90;99.90;;;;;;5145412;28;20127;-85
2022/01/23 06:04:25;;;;;;;0.10;0.10;;;4.90;99.90;;;;;;5111655;28;20078;-85
2022/01/23 06:06:58;;;;;;;0.10;0.10;;;4.80;99.90;;;;;;5112084;28;20039;-84
2022/01/23 06:09:25;;;;;;;0.10;0.10;;;4.90;99.90;;;;;;5111662;28;20040;-84
2022/01/23 06:11:52;;;;;;;0.10;0.10;;;4.80;99.90;;;;;;5145793;28;20040;-84
2022/01/23 06:14:20;;;;;;;0.10;0.10;;;4.80;99.90;;;;;;5094848;28;20039;-84
2022/01/23 06:16:46;;;;;;;0.10;0.10;;;4.80;99.90;;;;;;5114614;28;20044;-84
2022/01/23 06:19:14;;;;;;;0.10;0.10;;;4.80;99.90;;;;;;5094575;28;20036;-84
2022/01/23 06:21:41;;;;;;;0.10;0.10;;;4.80;99.90;;;;;;5111494;28;20044;-85
2022/01/23 06:24:09;;;;;;;0.10;0.10;;;4.70;99.90;;;;;;5110976;28;20036;-84
2022/01/23 06:26:43;;;;;;;0.10;0.10;;;4.70;99.90;;;;;;5111827;28;20041;-84
2022/01/23 06:29:11;;;;;;;0.10;0.10;;;4.70;99.90;;;;;;5127929;28;20060;-84
2022/01/23 06:31:39;;;;;;;0.10;0.10;;;4.70;99.90;;;;;;5111219;28;20503;-85
2022/01/23 06:34:07;;;;;;;0.10;0.10;;;4.70;99.90;;;;;;5110952;28;20040;-84
2022/01/23 06:36:34;;;;;;;0.10;0.10;;;5.10;99.90;;;;;;5111151;28;20169;-84
2022/01/23 06:39:04;;;;;;;0.10;0.10;;;4.60;99.90;;;;;;5110853;28;20048;-85
2022/01/23 06:41:31;;;;;;;0.10;0.10;;;4.50;99.90;;;;;;5127962;28;20046;-85
2022/01/23 06:43:58;;;;;;;0.10;0.10;;;4.50;99.90;;;;;;5111006;28;20545;-84
2022/01/23 06:46:25;;;;;;;0.03;0.03;;;4.50;99.90;;;;;;5110927;28;20040;-85
2022/01/23 06:48:52;;;;;;;0.10;0.10;;;4.70;99.90;;;;;;5111194;28;20792;-84
2022/01/23 06:51:19;;;;;;;0.10;0.10;;;4.30;99.90;;;;;;5109984;28;20492;-84
2022/01/23 06:53:45;;;;;;;0.10;0.10;;;4.30;99.90;;;;;;5110788;28;20403;-84
2022/01/23 06:56:12;;;;;;;0.10;0.10;;;4.20;99.90;;;;;;5110418;28;20040;-85
2022/01/23 06:58:39;;;;;;;0.10;0.10;;;4.30;99.90;;;;;;5110338;28;20036;-84
2022/01/23 07:01:07;;;;;;;0.10;0.10;;;4.10;99.90;;;;;;5110350;28;20040;-84
2022/01/23 07:03:35;;;;;;;0.10;0.10;;;4.50;99.90;;;;;;5127604;28;20036;-84
2022/01/23 07:06:02;;;;;;;0.10;0.10;;;4.10;99.90;;;;;;5110392;28;20036;-84
2022/01/23 07:08:28;;;;;;;0.10;0.10;;;4.00;99.90;;;;;;5127318;28;20035;-85
2022/01/23 07:10:55;;;;;;;0.10;0.10;;;4.00;99.90;;;;;;5110408;28;20559;-85
2022/01/23 07:13:22;;;;;;;0.10;0.10;;;3.90;99.90;;;;;;5109984;28;20032;-85
2022/01/23 07:15:49;;;;;;;0.10;0.10;;;3.90;99.90;;;;;;5127146;28;20093;-84
2022/01/23 07:18:18;;;;;;;0.10;0.10;;;4.40;99.90;;;;;;5126819;28;20093;-84
2022/01/23 07:20:46;;;;;;;0.10;0.10;;;4.00;99.90;;;;;;5110299;28;20036;-84
2022/01/23 07:23:13;;;;;;;0.10;0.10;;;4.10;99.90;;;;;;5126400;28;20047;-84
2022/01/23 07:25:42;;;;;;;0.10;0.10;;;3.90;99.90;;;;;;5110031;28;20035;-84
2022/01/23 07:28:14;;;;;;;0.15;0.15;;;3.90;99.90;;;;;;5109616;28;20036;-84
2022/01/23 07:30:51;;;;;;;0.10;0.10;;;4.00;99.90;;;;;;5110691;28;20036;-85
2022/01/23 07:33:19;;;;;;;0.10;0.10;;;4.00;99.90;;;;;;5142878;28;20101;-85
2022/01/23 07:35:47;;;;;;;0.10;0.10;;;4.00;99.90;;;;;;5146521;28;20050;-84
2022/01/23 07:38:17;;;;;;;0.10;0.10;;;4.10;99.90;;;;;;5111959;28;20918;-83
2022/01/23 07:40:46;;;;;;;0.10;0.10;;;4.10;99.90;;;;;;5130265;28;20050;-83
2022/01/23 07:43:12;;;;;;;0.10;0.10;;;4.30;99.90;;;;;;5113068;28;20035;-84
2022/01/23 07:45:39;;;;;;;0.10;0.10;;;4.20;99.90;;;;;;5138382;28;20097;-84
2022/01/23 07:48:06;;;;;;;0.10;0.10;;;4.20;99.90;;;;;;5130062;28;20043;-84
2022/01/23 07:50:33;;;;;;;0.10;0.10;;;4.20;99.90;;;;;;5152420;27;20039;-85
2022/01/23 07:53:00;;;;;;;0.10;0.10;;;4.20;99.90;;;;;;5129880;28;20039;-84
2022/01/23 07:55:27;;;;;;;0.10;0.10;;;4.60;99.90;;;;;;5141285;28;20075;-83
2022/01/23 07:57:53;;;;;;;0.10;0.10;;;4.30;99.90;;;;;;5137659;28;20043;-85
2022/01/23 08:00:22;;;;;;;0.10;0.10;;;4.30;99.90;;;;;;5112427;28;20140;-84
2022/01/23 08:02:48;;;;;;;0.10;0.10;;;4.40;99.90;;;;;;5129390;28;20063;-84
2022/01/23 08:05:15;;;;;;;0.10;0.10;;;4.40;99.90;;;;;;5129063;28;20028;-84
2022/01/23 08:07:42;;;;;;;0.10;0.10;;;4.40;99.90;;;;;;5129208;28;20036;-84
2022/01/23 08:10:09;;;;;;;0.10;0.10;;;4.50;99.90;;;;;;5129081;28;20044;-85
2022/01/23 08:12:36;;;;;;;0.10;0.10;;;4.50;99.90;;;;;;5162409;28;20035;-84
2022/01/23 08:15:04;;;;;;;0.10;0.10;;;4.60;99.90;;;;;;5164060;27;20496;-85
2022/01/23 08:17:32;;;;;;;0.10;0.10;;;4.60;99.90;;;;;;5129891;28;20118;-83
2022/01/23 08:20:01;;;;;;;0.10;0.10;;;4.60;99.90;;;;;;5133061;28;20143;-84
2022/01/23 08:22:30;;;;;;;0.10;0.10;;;4.80;99.90;;;;;;5163397;28;20036;-83
2022/01/23 08:24:57;;;;;;;0.10;0.10;;;4.70;99.90;;;;;;5161764;28;20496;-81
2022/01/23 08:27:25;;;;;;;0.10;0.10;;;4.70;99.90;;;;;;5144017;28;20032;-85
2022/01/23 08:29:52;;;;;;;0.10;0.10;;;4.70;99.90;;;;;;5162633;28;20502;-85
2022/01/23 08:32:19;;;;;;;0.10;0.10;;;4.80;99.90;;;;;;5108765;28;20032;-86
2022/01/23 08:34:46;;;;;;;0.10;0.10;;;4.80;99.90;;;;;;5109771;28;20036;-85
2022/01/23 08:37:13;;;;;;;0.10;0.10;;;4.90;99.90;;;;;;5112928;28;20049;-87
2022/01/23 08:39:41;;;;;;;0.10;0.10;;;4.90;99.90;;;;;;5129585;28;20131;-85
2022/01/23 08:42:15;;;;;;;0.10;0.10;;;4.90;99.90;;;;;;5129001;28;20047;-85
2022/01/23 08:44:43;;;;;;;0.10;0.10;;;4.90;99.90;;;;;;5129020;28;20434;-85
2022/01/23 08:47:10;;;;;;;0.22;0.20;;;5.00;99.90;;;;;;5128831;28;20028;-85
2022/01/23 08:49:44;;;;;;;0.10;0.10;;;5.00;99.90;;;;;;5095599;28;20504;-84
2022/01/23 08:52:12;;;;;;;0.10;0.10;;;5.10;99.90;;;;;;5144033;28;20408;-85
2022/01/23 08:54:39;;;;;;;0.10;0.10;;;5.10;99.90;;;;;;5157038;28;20062;-86
2022/01/23 08:57:06;;;;;;;0.10;0.10;;;5.10;99.90;;;;;;5094686;28;20032;-85
2022/01/23 08:59:33;;;;;;;0.05;0.05;;;5.10;99.90;;;;;;5106172;28;20520;-85
2022/01/23 09:01:59;;;;;;;0.10;0.10;;;5.20;99.90;;;;;;5128944;28;20079;-86
2022/01/23 09:04:26;;;;;;;0.10;0.10;;;5.20;99.90;;;;;;5091778;28;20073;-86
2022/01/23 09:06:53;;;;;;;0.10;0.10;;;5.20;99.90;;;;;;5108590;28;20050;-85
2022/01/23 09:09:20;;;;;;;0.10;0.10;;;5.30;99.90;;;;;;5108370;28;20068;-86
2022/01/23 09:12:02;;;;;;;0.10;0.10;;;5.30;99.90;;;;;;5142434;28;20051;-85
2022/01/23 09:14:29;;;;;;;0.10;0.10;;;5.30;99.90;;;;;;5144060;28;20154;-86
2022/01/23 09:16:57;;;;;;;0.10;0.10;;;5.30;99.90;;;;;;5132641;28;20121;-85
2022/01/23 09:19:25;;;;;;;0.10;0.10;;;5.40;99.90;;;;;;5149596;28;20075;-86
2022/01/23 09:21:54;;;;;;;0.05;0.05;;;5.40;99.90;;;;;;5132346;28;20050;-84
2022/01/23 09:24:22;;;;;;;0.10;0.10;;;5.40;99.90;;;;;;5132595;28;20039;-86
2022/01/23 09:26:55;;;;;;;0.10;0.10;;;5.50;99.90;;;;;;5149792;28;20043;-86
2022/01/23 09:30:05;;;;;;;0.10;0.10;;;5.50;99.90;;;;;;5160579;27;20097;-85
2022/01/23 09:32:19;;;;;;;0.10;0.10;;;5.60;99.90;;;;;;5146941;28;20134;-85
2022/01/23 09:34:48;;;;;;;0.10;0.10;;;5.60;99.90;;;;;;5116115;28;20044;-84
2022/01/23 09:37:16;;;;;;;0.05;0.05;;;5.60;99.90;;;;;;5115661;28;20044;-86
2022/01/23 09:39:46;;;;;;;0.10;0.10;;;5.60;99.90;;;;;;5146328;27;20074;-82
2022/01/23 09:42:14;;;;;;;0.10;0.10;;;5.70;99.90;;;;;;5111885;28;20048;-81
2022/01/23 09:44:47;;;;;;;0.00;0.00;;;5.70;99.90;;;;;;5110831;28;20036;-82
2022/01/23 09:47:15;;;;;;;0.05;0.05;;;5.80;99.90;;;;;;5145347;28;20043;-83
2022/01/23 09:49:43;;;;;;;0.10;0.10;;;5.80;99.90;;;;;;5111218;28;20040;-83
2022/01/23 09:52:12;;;;;;;0.10;0.10;;;5.80;99.90;;;;;;5095064;28;20072;-83
2022/01/23 09:54:40;;;;;;;0.10;0.10;;;6.00;99.90;;;;;;5094522;28;20412;-83
2022/01/23 09:57:10;;;;;;;0.10;0.10;;;5.90;99.90;;;;;;5094825;28;20090;-83
2022/01/23 09:59:38;;;;;;;0.10;0.10;;;6.00;99.90;;;;;;5110760;28;20044;-83
2022/01/23 10:02:05;;;;;;;0.03;0.03;;;6.00;99.90;;;;;;5127767;28;20516;-82
2022/01/23 10:04:32;;;;;;;0.10;0.10;;;6.00;99.90;;;;;;5094424;28;20043;-82
2022/01/23 10:06:59;;;;;;;0.03;0.03;;;6.10;99.90;;;;;;5094389;28;20040;-82
2022/01/23 10:09:27;;;;;;;0.10;0.10;;;6.10;99.90;;;;;;5110798;28;20040;-83
2022/01/23 10:11:54;;;;;;;0.10;0.10;;;6.10;99.90;;;;;;5094467;28;20044;-82
2022/01/23 10:14:21;;;;;;;0.00;0.00;;;6.10;99.90;;;;;;5110300;28;20044;-82
2022/01/23 10:16:47;;;;;;;0.10;0.10;;;6.20;99.90;;;;;;5093983;28;20082;-82
2022/01/23 10:19:17;;;;;;;0.10;0.10;;;6.20;99.90;;;;;;5094674;28;20128;-83
2022/01/23 10:21:46;;;;;;;0.05;0.05;;;6.20;99.90;;;;;;5110477;28;20040;-82
2022/01/23 10:24:14;;;;;;;0.10;0.10;;;6.30;99.90;;;;;;5111252;28;20439;-82
2022/01/23 10:26:46;;;;;;;0.00;0.00;;;6.30;99.90;;;;;;5110712;28;20071;-82
2022/01/23 10:29:22;;;;;;;0.10;0.10;;;6.30;99.90;;;;;;5116826;28;20510;-83
2022/01/23 10:32:29;;;;;;;0.10;0.10;;;6.30;99.90;;;;;;5165140;27;20039;-83
2022/01/23 10:34:59;;;;;;;0.10;0.10;;;6.30;99.90;;;;;;5164041;27;20050;-84
2022/01/23 10:37:38;;;;;;;0.10;0.10;;;6.40;99.90;;;;;;5130296;28;20079;-83
2022/01/23 10:40:12;;;;;;;0.10;0.10;;;6.40;99.90;;;;;;5147705;28;20621;-84
2022/01/23 10:48:35;;;;;;;0.10;0.10;;;6.50;99.90;;;;;;5147740;28;20048;-84
2022/01/23 10:51:23;;;;;;;0.10;0.10;;;6.50;99.90;;;;;;5130798;28;20036;-82
2022/01/23 10:54:02;;;;;;;0.00;0.00;;;6.60;99.90;;;;;;5147556;28;20031;-83
2022/01/23 10:56:31;;;;;;;0.10;0.10;;;6.60;99.90;;;;;;5128907;28;20035;-84
2022/01/23 10:59:08;;;;;;;0.10;0.10;;;6.70;99.90;;;;;;5129817;28;20112;-82
2022/01/23 11:01:36;;;;;;;0.03;0.03;;;6.80;99.90;;;;;;5129913;28;20036;-82
2022/01/23 11:04:12;;;;;;;0.10;0.10;;;6.60;99.90;;;;;;5147501;27;20035;-82
2022/01/23 11:07:02;;;;;;;0.10;0.10;;;6.70;99.90;;;;;;5129466;28;20035;-83
2022/01/23 11:09:32;;;;;;;0.10;0.10;;;6.70;99.90;;;;;;5129888;28;20032;-82
2022/01/23 11:12:03;;;;;;;0.00;0.00;;;6.80;99.90;;;;;;5164908;27;20085;-83
2022/01/23 11:17:23;;;;;;;0.10;0.10;;;6.80;99.90;;;;;;5141043;28;20044;-82
2022/01/23 11:19:55;;;;;;;0.10;0.10;;;6.90;99.90;;;;;;5131061;28;20050;-83
2022/01/23 11:22:28;;;;;;;0.10;0.10;;;6.90;99.90;;;;;;5130411;28;20040;-83
2022/01/23 11:25:10;;;;;;;0.00;0.00;;;6.90;99.90;;;;;;5130157;28;20031;-83
2022/01/23 11:27:39;;;;;;;0.00;0.00;;;6.90;99.90;;;;;;5180973;27;20040;-83
2022/01/23 11:30:09;;;;;;;0.10;0.10;;;6.90;99.90;;;;;;5130217;28;20446;-83
2022/01/23 11:32:40;;;;;;;0.10;0.10;;;7.00;99.90;;;;;;5163499;27;20617;-84
2022/01/23 11:35:14;;;;;;;0.10;0.10;;;7.00;99.90;;;;;;5146717;28;20048;-84
2022/01/23 11:37:47;;;;;;;0.03;0.03;;;6.90;99.90;;;;;;5129106;28;20079;-83
2022/01/23 11:53:58;;;;;;;0.05;0.05;;;6.90;99.90;;;;;;5146722;28;20520;-83
2022/01/23 11:56:25;;;;;;;0.08;0.08;;;6.90;99.90;;;;;;5146509;28;20042;-82
2022/01/23 11:58:53;;;;;;;0.00;0.00;;;6.90;99.90;;;;;;5129756;28;20480;-83
2022/01/23 12:01:25;;;;;;;0.00;0.00;;;6.80;99.90;;;;;;5146864;28;20031;-83
2022/01/23 12:04:07;;;;;;;0.00;0.00;;;6.80;99.90;;;;;;5129690;28;20047;-83
2022/01/23 12:06:36;;;;;;;0.10;0.10;;;6.80;99.90;;;;;;5129160;28;20127;-84
2022/01/23 12:09:21;;;;;;;0.10;0.10;;;6.80;99.90;;;;;;5113020;28;20169;-83
2022/01/23 12:17:24;;;;;;;0.10;0.10;;;6.70;99.90;;;;;;5180678;27;20492;-83
2022/01/23 12:19:57;;;;;;;0.00;0.00;;;6.70;99.90;;;;;;5146031;28;20039;-82
2022/01/23 12:22:42;;;;;;;0.10;0.10;;;6.70;99.90;;;;;;5109084;28;20040;-83
2022/01/23 12:25:24;;;;;;;0.10;0.10;;;6.70;99.90;;;;;;5113906;28;20067;-82
2022/01/23 12:28:14;;;;;;;0.03;0.03;;;6.70;99.90;;;;;;5121466;28;20036;-82
2022/01/23 12:30:43;;;;;;;0.10;0.10;;;6.70;99.90;;;;;;5124171;28;20058;-83
2022/01/23 12:33:26;;;;;;;0.00;0.00;;;6.70;99.90;;;;;;5127807;28;20036;-83
2022/01/23 12:35:57;;;;;;;0.10;0.10;;;6.70;99.90;;;;;;5129013;28;20043;-82
2022/01/23 12:38:37;;;;;;;0.03;0.03;;;6.70;99.90;;;;;;5129015;28;20048;-83
2022/01/23 12:41:37;;;;;;;0.00;0.00;;;6.70;99.90;;;;;;5129283;28;20051;-83
2022/01/23 12:44:04;;;;;;;0.10;0.10;;;6.60;99.90;;;;;;5097192;28;20052;-83
2022/01/23 12:46:38;;;;;;;0.10;0.10;;;6.60;99.90;;;;;;5155174;28;20100;-82
2022/01/23 12:49:17;;;;;;;0.00;0.00;;;6.60;99.90;;;;;;5164468;27;20044;-83
2022/01/23 12:51:45;;;;;;;0.10;0.10;;;6.50;99.90;;;;;;5145830;28;20629;-84
2022/01/23 12:54:21;;;;;;;0.10;0.10;;;6.50;99.90;;;;;;5118339;28;20504;-83
2022/01/23 12:56:49;;;;;;;0.05;0.05;;;6.50;99.90;;;;;;5125878;28;20036;-83
2022/01/23 12:59:24;;;;;;;0.10;0.10;;;6.50;99.90;;;;;;5124011;28;20040;-84
2022/01/23 13:01:58;;;;;;;0.08;0.08;;;6.50;99.90;;;;;;5160352;27;20070;-83
2022/01/23 13:04:33;;;;;;;0.10;0.10;;;6.50;99.90;;;;;;5132760;28;20039;-83
2022/01/23 13:07:10;;;;;;;0.10;0.10;;;6.80;99.90;;;;;;5133158;28;20040;-83
2022/01/23 13:09:50;;;;;;;0.10;0.10;;;6.40;99.90;;;;;;5132583;28;20320;-83
2022/01/23 13:32:00;;;;;;;0.10;0.10;;;6.50;99.90;;;;;;5170105;27;20051;-83
2022/01/23 13:34:37;;;;;;;0.10;0.10;;;6.50;99.90;;;;;;5164796;27;20121;-84
2022/01/23 13:37:16;;;;;;;0.10;0.10;;;6.50;99.90;;;;;;5148878;28;20092;-83
2022/01/23 13:39:50;;;;;;;0.00;0.00;;;6.50;99.90;;;;;;5151457;27;20064;-82
2022/01/23 13:53:37;;;;;;;0.00;0.00;;;6.40;99.90;;;;;;5147618;28;20282;-83
2022/01/23 13:59:27;;;;;;;0.10;0.10;;;6.50;99.90;;;;;;5173845;27;20069;-83
2022/01/23 14:02:14;;;;;;;0.00;0.00;;;6.50;99.90;;;;;;5149821;27;20127;-85
2022/01/23 14:04:51;;;;;;;;;;;6.50;99.90;;;;;;5131334;28;20032;-83
2022/01/23 14:07:24;;;;;;;0.10;0.10;;;6.50;99.90;;;;;;5130996;28;20006;-84
2022/01/23 14:09:52;;;;;;;0.00;0.00;;;6.50;99.90;;;;;;5147777;28;20032;-84
2022/01/23 14:12:20;;;;;;;0.10;0.10;;;6.50;99.90;;;;;;5098332;28;20480;-84
2022/01/23 14:14:55;;;;;;;0.10;0.10;;;6.50;99.90;;;;;;5131179;28;20039;-83
2022/01/23 14:17:28;;;;;;;0.10;0.10;;;6.50;99.90;;;;;;5131143;28;20075;-83
2022/01/23 14:20:07;;;;;;;0.10;0.10;;;6.40;99.90;;;;;;5114377;28;20058;-83
2022/01/23 14:22:37;;;;;;;0.00;0.00;;;6.50;99.90;;;;;;5161672;27;20105;-84
2022/01/23 14:25:06;;;;;;;0.10;0.10;;;6.50;99.90;;;;;;5165170;27;20027;-83
2022/01/23 14:27:33;;;;;;;0.10;0.10;;;6.50;99.90;;;;;;5164895;27;20512;-83
2022/01/23 14:30:12;;;;;;;0.10;0.10;;;6.50;99.90;;;;;;5164645;27;20031;-83
2022/01/23 14:32:45;;;;;;;0.00;0.00;;;6.40;99.90;;;;;;5126508;28;20036;-84
2022/01/23 14:35:17;;;;;;;0.00;0.00;;;6.50;99.90;;;;;;5130994;28;20039;-83
2022/01/23 14:37:47;;;;;;;0.00;0.00;;;6.50;99.90;;;;;;5130612;28;20150;-83
2022/01/23 14:40:26;;;;;;;0.03;0.03;;;6.40;99.90;;;;;;5130499;28;20130;-83
2022/01/23 14:43:19;;;;;;;0.10;0.10;;;6.40;99.90;;;;;;5129399;28;20097;-83
2022/01/23 14:45:49;;;;;;;0.10;0.10;;;6.40;99.90;;;;;;5160762;27;20130;-83
2022/01/23 14:48:17;;;;;;;0.00;0.00;;;6.40;99.90;;;;;;5130666;28;20031;-82
2022/01/23 14:50:50;;;;;;;0.03;0.03;;;6.40;99.90;;;;;;5113786;28;20057;-81
2022/01/23 14:53:23;;;;;;;0.00;0.00;;;6.40;99.90;;;;;;5130773;28;20047;-83
2022/01/23 14:55:56;;;;;;;0.08;0.08;;;6.40;99.90;;;;;;5147377;28;20045;-82
2022/01/23 14:58:24;;;;;;;0.10;0.10;;;6.40;99.90;;;;;;5130476;28;20088;-83
2022/01/23 15:00:56;;;;;;;0.08;0.08;;;6.40;99.90;;;;;;5113384;28;20047;-82
2022/01/23 15:03:25;;;;;;;0.10;0.10;;;6.30;99.90;;;;;;5129840;28;20503;-82
2022/01/23 15:05:52;;;;;;;0.10;0.10;;;6.30;99.90;;;;;;5130266;28;20123;-82
2022/01/23 15:08:22;;;;;;;0.10;0.10;;;6.30;99.90;;;;;;5113600;28;20850;-83
2022/01/23 15:10:51;;;;;;;0.10;0.10;;;6.30;99.90;;;;;;5130141;28;20706;-83
2022/01/23 15:13:19;;;;;;;0.10;0.10;;;6.30;99.90;;;;;;5146852;27;20040;-83
2022/01/23 15:15:46;;;;;;;0.00;0.00;;;6.30;99.90;;;;;;5113607;28;20047;-83
2022/01/23 15:18:13;;;;;;;0.00;0.00;;;6.20;99.90;;;;;;5129951;28;20400;-82
2022/01/23 15:20:40;;;;;;;0.10;0.10;;;6.30;99.90;;;;;;5129340;28;20122;-82
2022/01/23 15:23:07;;;;;;;0.10;0.10;;;6.20;99.90;;;;;;5112811;28;20135;-82
2022/01/23 15:25:35;;;;;;;0.05;0.05;;;6.20;99.90;;;;;;5113143;28;20396;-83
2022/01/23 15:28:02;;;;;;;0.03;0.03;;;6.20;99.90;;;;;;5113248;28;20039;-82
2022/01/23 15:30:29;;;;;;;0.10;0.10;;;6.20;99.90;;;;;;5147076;27;20377;-82
2022/01/23 15:32:57;;;;;;;0.00;0.00;;;6.20;99.90;;;;;;5146426;28;20172;-82
2022/01/23 15:35:25;;;;;;;0.03;0.03;;;6.20;99.90;;;;;;5146472;28;20700;-82
2022/01/23 15:37:52;;;;;;;0.10;0.10;;;6.20;99.90;;;;;;5128615;28;20054;-81
2022/01/23 15:40:20;;;;;;;0.10;0.10;;;6.20;99.90;;;;;;5111959;28;20060;-82
2022/01/23 15:42:50;;;;;;;0.00;0.00;;;6.20;99.90;;;;;;5141933;28;20054;-82
2022/01/23 15:45:19;;;;;;;0.00;0.00;;;6.20;99.90;;;;;;5142579;28;20481;-82
2022/01/23 15:47:46;;;;;;;0.00;0.00;;;6.10;99.90;;;;;;5125730;28;20404;-82
2022/01/23 15:50:15;;;;;;;0.00;0.00;;;6.10;99.90;;;;;;5132945;28;20035;-82
2022/01/23 15:52:42;;;;;;;0.10;0.10;;;6.60;99.90;;;;;;5112139;28;20071;-82
2022/01/23 15:55:11;;;;;;;0.10;0.10;;;6.10;99.90;;;;;;5146802;28;20036;-82
2022/01/23 15:57:39;;;;;;;0.10;0.10;;;6.10;99.90;;;;;;5129876;28;20046;-82
2022/01/23 16:00:08;;;;;;;0.10;0.10;;;6.10;99.90;;;;;;5108786;28;20130;-82
2022/01/23 16:02:35;;;;;;;0.10;0.10;;;6.00;99.90;;;;;;5156594;27;20047;-81
2022/01/23 16:05:03;;;;;;;0.10;0.10;;;6.00;99.90;;;;;;5105834;28;20093;-82
2022/01/23 16:07:30;;;;;;;0.08;0.08;;;6.00;99.90;;;;;;5108955;28;20093;-81
2022/01/23 16:09:57;;;;;;;0.00;0.00;;;6.00;99.90;;;;;;5095771;28;20044;-82
2022/01/23 16:12:23;;;;;;;0.00;0.00;;;6.00;99.90;;;;;;5136959;28;20043;-82
2022/01/23 16:14:50;;;;;;;0.10;0.10;;;6.00;99.90;;;;;;5101379;28;20031;-82
2022/01/23 16:17:17;;;;;;;0.00;0.00;;;6.00;99.90;;;;;;5117338;28;20065;-82
2022/01/23 16:19:43;;;;;;;0.10;0.10;;;6.00;99.90;;;;;;5132173;28;20837;-81
2022/01/23 16:22:10;;;;;;;0.08;0.08;;;6.00;99.90;;;;;;5129431;28;20123;-82
2022/01/23 16:24:37;;;;;;;0.08;0.08;;;6.00;99.90;;;;;;5115859;28;20090;-81
2022/01/23 16:27:04;;;;;;;0.05;0.05;;;5.90;99.90;;;;;;5133010;28;20063;-82
2022/01/23 16:29:31;;;;;;;0.00;0.00;;;5.90;99.90;;;;;;5133369;28;20089;-82
2022/01/23 16:31:59;;;;;;;0.00;0.00;;;5.90;99.90;;;;;;5133120;28;20521;-82
2022/01/23 16:34:30;;;;;;;0.10;0.10;;;5.90;99.90;;;;;;5149892;28;20043;-82